Time;durP1;ratioP1;P1;durP2;ratioP2;P2;SDS_P1;SDS_P2;PMS_P1;PMS_P2;Temp;Humidity;BMP_temperature;BMP_pressure;BME280_temperature;BME280_humidity;BME280_pressure;Samples;Min_cycle;Max_cycle;Signal;HPM_P1;HPM_P2
2022/02/27 00:02:22;;;;;;;12.23;3.83;;;;;9.70;103085.00;;;;5051736;28;20214;-83
2022/02/27 00:04:49;;;;;;;8.38;4.00;;;;;9.70;103092.00;;;;5035784;28;20678;-83
2022/02/27 00:07:16;;;;;;;10.60;4.15;;;;;9.70;103097.00;;;;5032146;28;20195;-83
2022/02/27 00:09:43;;;;;;;9.57;4.40;;;;;9.60;103090.00;;;;5033500;28;20212;-82
2022/02/27 00:12:11;;;;;;;11.00;4.82;;;;;9.60;103091.00;;;;5032490;28;20235;-83
2022/02/27 00:14:38;;;;;;;8.02;3.53;;;;;9.60;103094.00;;;;5048030;28;20561;-83
2022/02/27 00:17:07;;;;;;;8.20;3.58;;;;;9.60;103099.00;;;;5047529;28;20196;-83
2022/02/27 00:19:34;;;;;;;7.45;3.70;;;;;9.60;103096.00;;;;5036847;28;20282;-83
2022/02/27 00:22:02;;;;;;;8.15;3.80;;;;;9.60;103099.00;;;;5051060;28;20200;-83
2022/02/27 00:24:29;;;;;;;7.00;3.63;;;;;9.50;103107.00;;;;5050391;28;20293;-82
2022/02/27 00:26:57;;;;;;;7.90;3.90;;;;;9.50;103106.00;;;;5050755;28;20249;-83
2022/02/27 00:29:25;;;;;;;7.97;3.80;;;;;9.50;103099.00;;;;5050691;28;20226;-83
2022/02/27 00:31:52;;;;;;;10.30;4.22;;;;;9.50;103106.00;;;;5051279;28;20227;-83
2022/02/27 00:34:20;;;;;;;9.55;3.53;;;;;9.50;103099.00;;;;5050927;28;20206;-83
2022/02/27 00:36:51;;;;;;;10.88;4.05;;;;;9.50;103103.00;;;;5051804;28;20215;-83
2022/02/27 00:39:19;;;;;;;6.45;3.60;;;;;9.50;103109.00;;;;5050151;28;20267;-82
2022/02/27 00:41:46;;;;;;;5.65;3.05;;;;;9.50;103110.00;;;;5052039;28;20688;-83
2022/02/27 00:44:13;;;;;;;9.45;3.55;;;;;9.40;103105.00;;;;5031213;28;20207;-83
2022/02/27 00:46:40;;;;;;;9.98;3.83;;;;;9.40;103106.00;;;;5032160;28;20204;-83
2022/02/27 00:49:08;;;;;;;7.78;3.65;;;;;9.40;103101.00;;;;5031800;28;20216;-82
2022/02/27 00:51:36;;;;;;;5.18;3.08;;;;;9.40;103094.00;;;;5036147;28;20239;-83
2022/02/27 00:54:04;;;;;;;9.93;3.50;;;;;9.40;103100.00;;;;5032714;28;20200;-83
2022/02/27 00:56:31;;;;;;;9.88;3.20;;;;;9.40;103088.00;;;;5032778;28;20196;-83
2022/02/27 00:58:58;;;;;;;7.65;3.83;;;;;9.30;103088.00;;;;5031221;28;20689;-83
2022/02/27 01:01:25;;;;;;;6.00;3.20;;;;;9.30;103100.00;;;;5049606;28;20199;-83
2022/02/27 01:03:53;;;;;;;12.45;3.65;;;;;9.30;103084.00;;;;5034499;28;20208;-83
2022/02/27 01:06:20;;;;;;;11.35;4.00;;;;;9.30;103091.00;;;;5038664;28;20317;-82
2022/02/27 01:08:48;;;;;;;7.13;3.30;;;;;9.30;103086.00;;;;5051194;28;20207;-83
2022/02/27 01:11:16;;;;;;;5.85;2.83;;;;;9.30;103089.00;;;;5042789;28;20224;-83
2022/02/27 01:13:43;;;;;;;8.48;2.97;;;;;9.20;103084.00;;;;5045705;28;20203;-82
2022/02/27 01:16:11;;;;;;;10.80;3.60;;;;;9.20;103080.00;;;;5044255;28;20203;-83
2022/02/27 01:18:38;;;;;;;6.25;2.97;;;;;9.20;103088.00;;;;5030682;28;20282;-83
2022/02/27 01:21:05;;;;;;;9.52;3.80;;;;;9.20;103079.00;;;;5035359;28;20203;-82
2022/02/27 01:23:32;;;;;;;5.15;3.10;;;;;9.20;103084.00;;;;5038283;28;20254;-83
2022/02/27 01:26:01;;;;;;;5.07;2.95;;;;;9.20;103089.00;;;;5038199;28;20576;-83
2022/02/27 01:28:28;;;;;;;7.18;3.25;;;;;9.10;103086.00;;;;5038049;28;20258;-83
2022/02/27 01:30:55;;;;;;;7.20;3.42;;;;;9.10;103094.00;;;;5041555;28;20200;-83
2022/02/27 01:33:22;;;;;;;6.85;3.28;;;;;9.10;103087.00;;;;5050205;28;20188;-83
2022/02/27 01:35:50;;;;;;;17.95;3.20;;;;;9.10;103079.00;;;;5049731;28;20212;-83
2022/02/27 01:38:17;;;;;;;7.55;3.28;;;;;9.10;103079.00;;;;5039905;28;20199;-83
2022/02/27 01:40:44;;;;;;;9.07;3.75;;;;;9.00;103073.00;;;;5050047;28;20661;-82
2022/02/27 01:43:13;;;;;;;6.90;3.00;;;;;9.00;103069.00;;;;5050011;28;20215;-83
2022/02/27 01:45:41;;;;;;;6.15;2.50;;;;;9.00;103066.00;;;;5041644;28;20259;-83
2022/02/27 01:48:08;;;;;;;6.93;2.78;;;;;9.00;103069.00;;;;5030025;28;20219;-83
2022/02/27 01:50:36;;;;;;;8.80;3.58;;;;;8.90;103065.00;;;;5030197;28;20258;-83
2022/02/27 01:53:03;;;;;;;4.43;2.65;;;;;8.90;103076.00;;;;5031477;28;20220;-83
2022/02/27 01:55:31;;;;;;;9.50;3.38;;;;;8.90;103069.00;;;;5030712;28;20200;-83
2022/02/27 01:57:59;;;;;;;6.07;2.88;;;;;8.90;103075.00;;;;5036596;28;20199;-84
2022/02/27 02:00:27;;;;;;;4.50;2.70;;;;;8.90;103084.00;;;;5040855;28;20678;-83
2022/02/27 02:02:55;;;;;;;6.50;3.35;;;;;8.80;103082.00;;;;5029807;28;20215;-83
2022/02/27 02:05:22;;;;;;;6.15;2.60;;;;;8.80;103089.00;;;;5031756;28;20209;-84
2022/02/27 02:07:49;;;;;;;6.93;3.08;;;;;8.80;103081.00;;;;5033759;28;20204;-83
2022/02/27 02:10:17;;;;;;;9.15;3.40;;;;;8.80;103083.00;;;;5051018;28;20565;-83
2022/02/27 02:12:44;;;;;;;6.85;2.90;;;;;8.70;103084.00;;;;5055225;28;20223;-84
2022/02/27 02:15:13;;;;;;;5.55;3.10;;;;;8.70;103078.00;;;;5048027;28;20210;-84
2022/02/27 02:17:41;;;;;;;5.00;3.00;;;;;8.70;103071.00;;;;5049275;28;20322;-83
2022/02/27 02:20:15;;;;;;;4.43;2.50;;;;;8.70;103084.00;;;;5048599;28;20211;-83
2022/02/27 02:22:42;;;;;;;4.97;2.80;;;;;8.70;103076.00;;;;5034866;28;20196;-84
2022/02/27 02:25:09;;;;;;;5.22;2.70;;;;;8.60;103078.00;;;;5049508;28;20211;-83
2022/02/27 02:27:37;;;;;;;7.03;2.72;;;;;8.60;103069.00;;;;5045884;28;20207;-83
2022/02/27 02:30:05;;;;;;;5.15;2.95;;;;;8.60;103071.00;;;;5042287;28;20196;-83
2022/02/27 02:32:32;;;;;;;5.72;2.75;;;;;8.60;103059.00;;;;5030217;28;20251;-84
2022/02/27 02:34:59;;;;;;;6.30;2.88;;;;;8.60;103067.00;;;;5045264;28;20199;-83
2022/02/27 02:37:28;;;;;;;7.55;2.60;;;;;8.50;103062.00;;;;5047052;28;20674;-83
2022/02/27 02:39:55;;;;;;;5.20;2.10;;;;;8.50;103060.00;;;;5029201;28;20243;-83
2022/02/27 02:42:22;;;;;;;5.82;2.40;;;;;8.50;103057.00;;;;5029585;28;20204;-83
2022/02/27 02:44:51;;;;;;;5.32;2.55;;;;;8.50;103058.00;;;;5048956;28;20212;-83
2022/02/27 02:47:21;;;;;;;5.88;2.42;;;;;8.50;103051.00;;;;5047079;28;20269;-83
2022/02/27 02:49:48;;;;;;;5.68;2.42;;;;;8.50;103044.00;;;;5029362;28;20200;-84
2022/02/27 02:52:18;;;;;;;5.93;2.67;;;;;8.40;103050.00;;;;5046369;28;20227;-84
2022/02/27 02:54:46;;;;;;;4.53;2.47;;;;;8.40;103060.00;;;;5029348;28;20228;-83
2022/02/27 02:57:14;;;;;;;7.05;2.25;;;;;8.40;103050.00;;;;5028818;28;20266;-83
2022/02/27 02:59:41;;;;;;;8.38;2.53;;;;;8.40;103044.00;;;;5031272;28;20613;-84
2022/02/27 03:02:09;;;;;;;5.40;2.17;;;;;8.40;103052.00;;;;5049229;28;20195;-83
2022/02/27 03:04:37;;;;;;;5.35;2.42;;;;;8.30;103047.00;;;;5048533;28;20226;-82
2022/02/27 03:07:04;;;;;;;4.95;2.80;;;;;8.30;103043.00;;;;5048260;28;20208;-83
2022/02/27 03:09:35;;;;;;;5.82;2.60;;;;;8.30;103039.00;;;;5046833;28;20265;-83
2022/02/27 03:12:04;;;;;;;3.97;2.25;;;;;8.30;103032.00;;;;5048590;28;20724;-82
2022/02/27 03:14:31;;;;;;;4.57;2.20;;;;;8.30;103024.00;;;;5048488;28;20207;-83
2022/02/27 03:16:58;;;;;;;3.08;1.92;;;;;8.20;103018.00;;;;5048687;28;20199;-84
2022/02/27 03:19:26;;;;;;;4.63;2.50;;;;;8.20;103029.00;;;;5032184;28;20196;-84
2022/02/27 03:21:53;;;;;;;5.50;2.33;;;;;8.20;103023.00;;;;5043982;28;20192;-84
2022/02/27 03:24:20;;;;;;;7.28;2.55;;;;;8.20;103035.00;;;;5035831;28;20223;-83
2022/02/27 03:26:47;;;;;;;5.15;2.75;;;;;8.10;103026.00;;;;5047343;28;20192;-84
2022/02/27 03:29:16;;;;;;;5.68;2.42;;;;;8.10;103024.00;;;;5048167;28;20211;-83
2022/02/27 03:31:43;;;;;;;8.30;2.58;;;;;8.10;103019.00;;;;5041605;28;20204;-84
2022/02/27 03:34:11;;;;;;;5.32;2.25;;;;;8.10;103017.00;;;;5028460;28;20233;-83
2022/02/27 03:36:38;;;;;;;6.47;2.95;;;;;8.00;103011.00;;;;5034917;28;20290;-84
2022/02/27 03:39:05;;;;;;;6.00;2.33;;;;;8.00;103012.00;;;;5048245;28;20188;-83
2022/02/27 03:41:33;;;;;;;4.95;2.53;;;;;8.00;103019.00;;;;5047833;28;20214;-84
2022/02/27 03:44:00;;;;;;;5.75;2.38;;;;;8.00;103019.00;;;;5048349;28;20198;-83
2022/02/27 03:46:34;;;;;;;8.55;3.17;;;;;8.00;103007.00;;;;5045664;28;20550;-83
2022/02/27 03:49:01;;;;;;;9.38;2.58;;;;;7.90;103004.00;;;;5038968;28;20262;-83
2022/02/27 03:51:28;;;;;;;4.80;2.60;;;;;7.90;103012.00;;;;5029006;28;20196;-83
2022/02/27 03:53:56;;;;;;;5.68;2.90;;;;;7.90;103010.00;;;;5031119;28;20315;-83
2022/02/27 03:56:23;;;;;;;3.78;1.85;;;;;7.90;103007.00;;;;5046086;28;20337;-83
2022/02/27 03:58:50;;;;;;;5.85;2.38;;;;;7.90;103012.00;;;;5048147;28;20204;-83
2022/02/27 04:01:17;;;;;;;4.47;2.85;;;;;7.90;103014.00;;;;5047286;28;20265;-83
2022/02/27 04:03:46;;;;;;;5.05;2.33;;;;;7.80;103013.00;;;;5048875;28;20195;-83
2022/02/27 04:06:13;;;;;;;4.13;2.35;;;;;7.80;103012.00;;;;5047764;28;20195;-83
2022/02/27 04:08:41;;;;;;;3.20;2.03;;;;;7.80;103011.00;;;;5048294;28;20199;-83
2022/02/27 04:11:08;;;;;;;8.98;2.88;;;;;7.80;103015.00;;;;5047710;28;20214;-83
2022/02/27 04:13:36;;;;;;;5.97;2.67;;;;;7.80;103019.00;;;;5043319;28;20228;-84
2022/02/27 04:16:04;;;;;;;4.97;2.42;;;;;7.80;103013.00;;;;5038707;28;20200;-83
2022/02/27 04:18:31;;;;;;;4.43;2.17;;;;;7.80;103014.00;;;;5047127;28;20269;-85
2022/02/27 04:21:00;;;;;;;3.72;2.17;;;;;7.80;103014.00;;;;5048402;28;20203;-84
2022/02/27 04:23:27;;;;;;;4.85;2.78;;;;;7.80;103023.00;;;;5047129;28;20211;-84
2022/02/27 04:25:54;;;;;;;5.05;3.10;;;;;7.70;103013.00;;;;5046282;28;20203;-84
2022/02/27 04:28:21;;;;;;;4.15;2.42;;;;;7.70;103023.00;;;;5047616;28;20196;-83
2022/02/27 04:30:49;;;;;;;3.67;2.42;;;;;7.70;103009.00;;;;5048202;28;20202;-84
2022/02/27 04:33:16;;;;;;;4.13;2.25;;;;;7.70;103012.00;;;;5049662;28;20280;-84
2022/02/27 04:35:43;;;;;;;5.80;2.00;;;;;7.60;103000.00;;;;5036258;28;20218;-85
2022/02/27 04:38:12;;;;;;;3.72;2.20;;;;;7.60;103004.00;;;;5047353;28;20207;-84
2022/02/27 04:40:39;;;;;;;7.13;2.45;;;;;7.60;103004.00;;;;5029468;28;20207;-84
2022/02/27 04:43:06;;;;;;;5.82;2.58;;;;;7.50;103007.00;;;;5031405;28;20667;-84
2022/02/27 04:45:33;;;;;;;3.97;2.65;;;;;7.50;102999.00;;;;5038496;28;20206;-84
2022/02/27 04:48:01;;;;;;;5.43;2.55;;;;;7.50;103004.00;;;;5051283;28;20215;-84
2022/02/27 04:50:28;;;;;;;4.57;2.90;;;;;7.50;102995.00;;;;5050445;28;20212;-85
2022/02/27 04:52:56;;;;;;;7.30;2.78;;;;;7.40;102997.00;;;;5044318;28;20697;-83
2022/02/27 04:55:24;;;;;;;4.72;2.45;;;;;7.40;103002.00;;;;5044980;28;20196;-84
2022/02/27 04:57:51;;;;;;;6.82;3.13;;;;;7.40;103001.00;;;;5031412;28;21173;-81
2022/02/27 05:00:19;;;;;;;6.07;2.72;;;;;7.40;103006.00;;;;5044539;28;20203;-81
2022/02/27 05:02:46;;;;;;;4.00;2.47;;;;;7.30;103002.00;;;;5051236;28;20196;-82
2022/02/27 05:05:13;;;;;;;5.13;2.40;;;;;7.30;103012.00;;;;5048423;28;20196;-82
2022/02/27 05:07:41;;;;;;;4.63;2.75;;;;;7.30;103000.00;;;;5051143;28;20693;-82
2022/02/27 05:10:09;;;;;;;4.78;2.50;;;;;7.30;102999.00;;;;5050405;28;20200;-83
2022/02/27 05:12:39;;;;;;;6.32;2.45;;;;;7.20;102994.00;;;;5046727;28;20771;-83
2022/02/27 05:15:08;;;;;;;4.35;2.85;;;;;7.20;102990.00;;;;5031841;28;20211;-83
2022/02/27 05:17:37;;;;;;;6.90;3.00;;;;;7.20;102990.00;;;;5032645;28;20220;-83
2022/02/27 05:20:05;;;;;;;5.45;2.50;;;;;7.20;102983.00;;;;5050588;28;20203;-82
2022/02/27 05:22:32;;;;;;;4.72;3.13;;;;;7.20;102982.00;;;;5049609;28;20604;-82
2022/02/27 05:24:59;;;;;;;5.00;2.78;;;;;7.20;102981.00;;;;5046814;28;20200;-82
2022/02/27 05:27:26;;;;;;;8.55;2.97;;;;;7.10;102990.00;;;;5034478;28;20716;-82
2022/02/27 05:29:55;;;;;;;4.82;2.53;;;;;7.10;102988.00;;;;5049576;28;20196;-83
2022/02/27 05:32:22;;;;;;;5.18;2.78;;;;;7.10;102982.00;;;;5043090;28;20599;-82
2022/02/27 05:34:49;;;;;;;6.10;3.03;;;;;7.10;102992.00;;;;5031169;28;20196;-82
2022/02/27 05:37:17;;;;;;;5.80;3.20;;;;;7.10;102986.00;;;;5030980;28;20207;-82
2022/02/27 05:39:44;;;;;;;4.53;2.53;;;;;7.00;102990.00;;;;5044598;28;20593;-82
2022/02/27 05:42:12;;;;;;;10.45;2.83;;;;;7.00;102987.00;;;;5050051;28;20206;-82
2022/02/27 05:44:39;;;;;;;4.47;2.40;;;;;7.00;102974.00;;;;5047963;28;20203;-82
2022/02/27 05:47:08;;;;;;;4.35;2.72;;;;;7.00;102979.00;;;;5070198;28;20206;-82
2022/02/27 05:49:35;;;;;;;5.22;2.45;;;;;7.00;102984.00;;;;5048139;28;20196;-81
2022/02/27 05:52:02;;;;;;;5.25;3.08;;;;;7.00;102984.00;;;;5029870;28;20212;-82
2022/02/27 05:54:30;;;;;;;4.43;2.90;;;;;7.00;102990.00;;;;5036687;28;20224;-82
2022/02/27 05:56:57;;;;;;;8.25;2.80;;;;;7.00;102983.00;;;;5050231;28;20195;-82
2022/02/27 05:59:25;;;;;;;5.57;2.95;;;;;7.00;102984.00;;;;5041873;28;20199;-82
2022/02/27 06:01:52;;;;;;;4.70;2.70;;;;;6.90;102985.00;;;;5046158;28;20199;-82
2022/02/27 06:04:23;;;;;;;5.93;2.75;;;;;6.90;102988.00;;;;5042242;28;20199;-83
2022/02/27 06:06:51;;;;;;;4.60;2.78;;;;;7.00;102985.00;;;;5041017;28;20254;-82
2022/02/27 06:09:18;;;;;;;4.63;2.60;;;;;7.00;102991.00;;;;5045123;28;20624;-81
2022/02/27 06:11:45;;;;;;;7.80;2.80;;;;;7.00;102999.00;;;;5035152;28;20196;-84
2022/02/27 06:14:14;;;;;;;6.68;2.85;;;;;7.00;102999.00;;;;5042434;28;20223;-82
2022/02/27 06:16:41;;;;;;;4.57;2.38;;;;;7.00;102993.00;;;;5048855;28;20192;-83
2022/02/27 06:19:09;;;;;;;4.13;2.72;;;;;7.00;102992.00;;;;5043706;28;21086;-82
2022/02/27 06:21:37;;;;;;;6.38;2.53;;;;;7.00;102992.00;;;;5042292;28;20202;-83
2022/02/27 06:24:06;;;;;;;5.55;2.25;;;;;7.10;102996.00;;;;5044873;28;20611;-84
2022/02/27 06:26:34;;;;;;;5.47;2.05;;;;;7.10;102997.00;;;;5049027;28;20203;-84
2022/02/27 06:29:02;;;;;;;4.28;2.80;;;;;7.10;102996.00;;;;5048836;28;20199;-84
2022/02/27 06:31:38;;;;;;;4.78;2.30;;;;;7.10;103003.00;;;;5034952;28;20295;-83
2022/02/27 06:34:05;;;;;;;5.85;3.00;;;;;7.20;103004.00;;;;5046505;28;20234;-83
2022/02/27 06:36:33;;;;;;;5.93;2.60;;;;;7.20;103006.00;;;;5038261;28;20196;-83
2022/02/27 06:39:02;;;;;;;6.07;2.40;;;;;7.30;103007.00;;;;5045395;28;20202;-84
2022/02/27 06:41:29;;;;;;;6.40;2.60;;;;;7.30;103011.00;;;;5045508;28;20216;-83
2022/02/27 06:43:56;;;;;;;4.70;2.42;;;;;7.30;103004.00;;;;5042534;28;20203;-84
2022/02/27 06:46:26;;;;;;;5.63;2.00;;;;;7.30;103006.00;;;;5033962;28;20192;-83
2022/02/27 06:48:54;;;;;;;6.13;2.53;;;;;7.40;102999.00;;;;5040087;28;20591;-83
2022/02/27 06:51:21;;;;;;;5.40;2.53;;;;;7.50;103007.00;;;;5050001;28;20573;-84
2022/02/27 06:53:48;;;;;;;6.13;2.03;;;;;7.50;103007.00;;;;5038168;28;20290;-83
2022/02/27 06:56:17;;;;;;;5.95;2.35;;;;;7.50;103007.00;;;;5029566;28;20200;-83
2022/02/27 06:58:44;;;;;;;5.18;2.50;;;;;7.60;103011.00;;;;5044317;28;20529;-84
2022/02/27 07:01:12;;;;;;;3.30;2.25;;;;;7.60;103003.00;;;;5040239;28;20200;-84
2022/02/27 07:03:39;;;;;;;4.65;2.30;;;;;7.70;103005.00;;;;5039336;28;20999;-83
2022/02/27 07:06:06;;;;;;;4.70;1.95;;;;;7.70;103009.00;;;;5043064;28;20984;-83
2022/02/27 07:08:34;;;;;;;4.28;2.33;;;;;7.80;103015.00;;;;5041334;28;20193;-84
2022/02/27 07:11:02;;;;;;;6.07;2.20;;;;;7.80;103013.00;;;;5028915;28;20204;-85
2022/02/27 07:13:34;;;;;;;3.13;2.30;;;;;7.90;103015.00;;;;5035958;28;20227;-83
2022/02/27 07:16:01;;;;;;;6.50;2.72;;;;;8.00;103012.00;;;;5048074;28;20280;-83
2022/02/27 07:18:30;;;;;;;4.28;2.72;;;;;8.00;103019.00;;;;5041241;28;20593;-84
2022/02/27 07:20:58;;;;;;;4.20;2.15;;;;;8.10;103015.00;;;;5044796;28;20215;-84
2022/02/27 07:23:28;;;;;;;4.60;2.03;;;;;8.20;103021.00;;;;5042269;28;20701;-85
2022/02/27 07:25:55;;;;;;;5.18;2.22;;;;;8.20;103015.00;;;;5038979;28;20202;-82
2022/02/27 07:28:22;;;;;;;3.33;2.08;;;;;8.30;103022.00;;;;5041123;28;20282;-83
2022/02/27 07:30:51;;;;;;;5.75;2.28;;;;;8.40;103020.00;;;;5047223;28;20222;-83
2022/02/27 07:33:19;;;;;;;4.38;2.45;;;;;8.40;103024.00;;;;5038139;28;20739;-83
2022/02/27 07:35:52;;;;;;;6.82;2.10;;;;;8.50;103018.00;;;;5046050;28;20856;-84
2022/02/27 07:38:19;;;;;;;2.90;1.90;;;;;8.60;103018.00;;;;5042331;28;20199;-84
2022/02/27 07:40:48;;;;;;;7.05;2.83;;;;;8.70;103010.00;;;;5030841;28;20665;-84
2022/02/27 07:43:16;;;;;;;5.90;2.25;;;;;8.80;103034.00;;;;5036985;28;20211;-84
2022/02/27 07:45:43;;;;;;;4.82;2.13;;;;;8.80;103016.00;;;;5044530;28;20279;-81
2022/02/27 07:48:15;;;;;;;4.68;2.00;;;;;8.90;103021.00;;;;5046881;28;20690;-85
2022/02/27 07:50:43;;;;;;;6.75;2.40;;;;;8.90;103009.00;;;;5047675;28;20720;-82
2022/02/27 07:53:11;;;;;;;6.43;2.60;;;;;9.00;103014.00;;;;5038886;28;20203;-83
2022/02/27 07:55:38;;;;;;;3.80;2.45;;;;;9.10;103015.00;;;;5048509;28;20694;-83
2022/02/27 07:58:11;;;;;;;5.78;2.15;;;;;9.20;103009.00;;;;5046842;28;20207;-82
2022/02/27 08:00:44;;;;;;;6.10;2.75;;;;;9.20;103019.00;;;;5042581;28;20287;-83
2022/02/27 08:03:13;;;;;;;7.05;2.40;;;;;9.30;103016.00;;;;5027419;28;20295;-83
2022/02/27 08:05:40;;;;;;;6.50;2.10;;;;;9.40;103019.00;;;;5031138;28;20204;-82
2022/02/27 08:08:08;;;;;;;4.63;2.40;;;;;9.40;103022.00;;;;5027146;28;20737;-83
2022/02/27 08:10:35;;;;;;;5.03;2.20;;;;;9.50;103017.00;;;;5030318;28;20199;-84
2022/02/27 08:13:05;;;;;;;2.83;2.00;;;;;9.60;103027.00;;;;5035291;28;20183;-85
2022/02/27 08:15:32;;;;;;;5.88;2.58;;;;;9.60;103032.00;;;;5032313;28;20204;-83
2022/02/27 08:18:03;;;;;;;6.70;2.58;;;;;9.70;103031.00;;;;5038655;28;20215;-82
2022/02/27 08:20:33;;;;;;;3.30;2.15;;;;;9.80;103032.00;;;;5051414;28;20207;-83
2022/02/27 08:23:04;;;;;;;6.72;2.40;;;;;9.80;103039.00;;;;5050850;28;20276;-85
2022/02/27 08:25:31;;;;;;;3.60;1.95;;;;;9.90;103038.00;;;;5046175;28;20196;-85
2022/02/27 08:28:03;;;;;;;3.80;1.52;;;;;9.90;103044.00;;;;5034083;28;20192;-84
2022/02/27 08:30:30;;;;;;;4.75;2.00;;;;;10.00;103046.00;;;;5051456;28;20207;-84
2022/02/27 08:32:57;;;;;;;3.33;1.90;;;;;10.10;103050.00;;;;5045916;28;20192;-84
2022/02/27 08:35:25;;;;;;;5.70;2.53;;;;;10.20;103051.00;;;;5046858;28;20226;-85
2022/02/27 08:37:53;;;;;;;3.72;2.20;;;;;10.20;103049.00;;;;5045024;28;20195;-83
2022/02/27 08:40:21;;;;;;;4.65;2.33;;;;;10.30;103047.00;;;;5038039;28;20214;-84
2022/02/27 08:42:54;;;;;;;5.32;2.08;;;;;10.30;103053.00;;;;5050876;28;20195;-85
2022/02/27 08:45:25;;;;;;;3.88;1.80;;;;;10.40;103049.00;;;;5038866;28;20662;-84
2022/02/27 08:47:54;;;;;;;4.40;1.88;;;;;10.50;103056.00;;;;5048694;28;20721;-84
2022/02/27 08:50:23;;;;;;;4.95;2.40;;;;;10.60;103054.00;;;;5031930;28;20215;-86
2022/02/27 08:52:51;;;;;;;3.95;2.40;;;;;10.70;103050.00;;;;5042844;28;20554;-85
2022/02/27 08:55:19;;;;;;;4.85;2.58;;;;;10.70;103057.00;;;;5041985;28;20247;-86
2022/02/27 08:57:48;;;;;;;6.10;3.08;;;;;10.80;103051.00;;;;5046782;28;20297;-85
2022/02/27 09:00:18;;;;;;;4.20;2.88;;;;;10.90;103048.00;;;;5032686;28;20685;-85
2022/02/27 09:02:46;;;;;;;6.40;2.92;;;;;10.90;103041.00;;;;5047816;28;20689;-85
2022/02/27 09:05:14;;;;;;;6.43;2.70;;;;;11.00;103042.00;;;;5049632;28;20202;-85
2022/02/27 09:07:42;;;;;;;4.05;2.80;;;;;11.00;103045.00;;;;5042043;28;20208;-81
2022/02/27 09:10:12;;;;;;;5.55;2.53;;;;;11.10;103039.00;;;;5047912;28;20222;-83
2022/02/27 09:12:43;;;;;;;3.72;2.33;;;;;11.10;103046.00;;;;5050798;28;20191;-81
2022/02/27 09:15:11;;;;;;;5.45;2.28;;;;;11.20;103047.00;;;;5042252;28;20772;-81
2022/02/27 09:17:39;;;;;;;4.70;2.30;;;;;11.20;103040.00;;;;5039798;28;20231;-81
2022/02/27 09:20:08;;;;;;;4.00;2.60;;;;;11.30;103044.00;;;;5050268;28;20207;-83
2022/02/27 09:22:35;;;;;;;4.57;1.77;;;;;11.30;103047.00;;;;5045436;28;20296;-84
2022/02/27 09:25:03;;;;;;;4.88;2.17;;;;;11.40;103052.00;;;;5046528;28;20195;-82
2022/02/27 09:27:30;;;;;;;2.90;2.10;;;;;11.40;103045.00;;;;5036055;28;20209;-83
2022/02/27 09:29:59;;;;;;;4.60;2.35;;;;;11.50;103043.00;;;;5044700;28;20188;-82
2022/02/27 09:32:26;;;;;;;5.90;2.17;;;;;11.60;103044.00;;;;5034390;28;20574;-81
2022/02/27 09:34:54;;;;;;;3.17;2.15;;;;;11.60;103047.00;;;;5051997;28;20230;-83
2022/02/27 09:37:22;;;;;;;4.22;2.63;;;;;11.70;103047.00;;;;5049186;28;20291;-84
2022/02/27 09:39:49;;;;;;;2.55;1.70;;;;;11.70;103038.00;;;;5034425;28;20208;-83
2022/02/27 09:42:17;;;;;;;3.65;2.30;;;;;11.80;103047.00;;;;5048792;28;20188;-83
2022/02/27 09:44:44;;;;;;;4.00;2.25;;;;;11.80;103041.00;;;;5041879;28;20200;-82
2022/02/27 09:47:15;;;;;;;4.60;2.50;;;;;11.90;103042.00;;;;5040992;28;20292;-82
2022/02/27 09:49:45;;;;;;;4.47;2.45;;;;;11.90;103036.00;;;;5046732;28;20199;-82
2022/02/27 09:52:15;;;;;;;2.80;1.98;;;;;12.00;103036.00;;;;5052915;28;20196;-84
2022/02/27 09:54:42;;;;;;;4.40;2.88;;;;;12.10;103029.00;;;;5040695;28;20223;-81
2022/02/27 09:57:15;;;;;;;4.03;2.45;;;;;12.10;103018.00;;;;5045726;28;20204;-81
2022/02/27 09:59:42;;;;;;;7.53;2.42;;;;;12.20;103029.00;;;;5051758;28;20191;-82
2022/02/27 10:02:10;;;;;;;4.45;2.60;;;;;12.20;103030.00;;;;5044482;28;20188;-83
2022/02/27 10:04:40;;;;;;;3.78;2.15;;;;;12.30;103022.00;;;;5041037;28;20258;-84
2022/02/27 10:07:12;;;;;;;4.50;2.30;;;;;12.30;103025.00;;;;5048144;28;20210;-84
2022/02/27 10:09:41;;;;;;;3.47;2.00;;;;;12.40;103025.00;;;;5034980;28;20195;-84
2022/02/27 10:12:17;;;;;;;6.18;2.63;;;;;12.40;103022.00;;;;5050367;28;20199;-82
2022/02/27 10:14:57;;;;;;;3.15;1.95;;;;;12.40;103019.00;;;;5047610;28;20231;-84
2022/02/27 10:17:34;;;;;;;6.22;2.20;;;;;12.50;103012.00;;;;5044921;28;20223;-83
2022/02/27 10:20:05;;;;;;;4.53;2.55;;;;;12.60;103018.00;;;;5043909;28;20188;-84
2022/02/27 10:22:34;;;;;;;3.78;2.42;;;;;12.70;103005.00;;;;5036597;28;20209;-83
2022/02/27 10:25:06;;;;;;;3.70;2.00;;;;;12.80;103013.00;;;;5030139;28;20204;-83
2022/02/27 10:27:44;;;;;;;4.85;2.33;;;;;12.80;103014.00;;;;5042468;28;20846;-83
2022/02/27 10:30:17;;;;;;;2.97;1.75;;;;;12.90;103013.00;;;;5045823;28;20192;-84
2022/02/27 10:32:49;;;;;;;3.38;2.00;;;;;13.00;103019.00;;;;5036360;28;20208;-81
2022/02/27 10:35:39;;;;;;;4.72;2.45;;;;;13.00;103019.00;;;;5029104;28;20231;-79
2022/02/27 10:38:08;;;;;;;4.13;2.70;;;;;13.20;103018.00;;;;5043507;28;20192;-81
2022/02/27 10:40:39;;;;;;;4.57;2.42;;;;;13.30;103000.00;;;;5040941;28;20203;-82
2022/02/27 10:43:08;;;;;;;3.70;2.35;;;;;13.40;102998.00;;;;5037962;28;20195;-79
2022/02/27 10:45:36;;;;;;;4.80;2.50;;;;;13.50;102993.00;;;;5031805;28;20693;-81
2022/02/27 10:48:05;;;;;;;5.03;2.22;;;;;13.60;103001.00;;;;5045703;28;20242;-81
2022/02/27 10:50:34;;;;;;;5.47;1.80;;;;;13.60;102995.00;;;;5046896;28;20665;-83
2022/02/27 10:53:03;;;;;;;3.50;1.92;;;;;13.70;102992.00;;;;5047427;28;20192;-80
2022/02/27 10:55:33;;;;;;;3.92;1.67;;;;;13.70;102993.00;;;;5037269;28;20216;-81
2022/02/27 10:58:01;;;;;;;4.88;2.45;;;;;13.80;102992.00;;;;5048033;28;20261;-80
2022/02/27 11:00:29;;;;;;;4.53;2.17;;;;;13.90;102992.00;;;;5039751;28;20204;-78
2022/02/27 11:03:00;;;;;;;2.85;1.60;;;;;14.00;102995.00;;;;5048438;28;20246;-84
2022/02/27 11:05:29;;;;;;;3.67;2.63;;;;;14.10;102993.00;;;;5037527;28;20200;-81
2022/02/27 11:07:57;;;;;;;2.88;2.00;;;;;14.10;102993.00;;;;5043164;28;20195;-80
2022/02/27 11:10:27;;;;;;;3.30;2.03;;;;;14.10;102999.00;;;;5042923;28;20226;-80
2022/02/27 11:12:57;;;;;;;5.22;2.00;;;;;14.20;102979.00;;;;5048519;28;20737;-80
2022/02/27 11:15:25;;;;;;;2.78;1.58;;;;;14.30;102984.00;;;;5046049;28;20696;-80
2022/02/27 11:17:52;;;;;;;3.03;1.90;;;;;14.30;102981.00;;;;5048193;28;20235;-80
2022/02/27 11:20:22;;;;;;;4.30;1.85;;;;;14.30;102982.00;;;;5047579;28;20677;-82
2022/02/27 11:22:50;;;;;;;2.47;1.80;;;;;14.40;102979.00;;;;5055340;28;20657;-80
2022/02/27 11:25:18;;;;;;;3.65;2.22;;;;;14.40;102983.00;;;;5044781;28;20200;-83
2022/02/27 11:27:50;;;;;;;2.92;1.95;;;;;14.40;102978.00;;;;5041939;28;20199;-85
2022/02/27 11:30:21;;;;;;;6.05;2.22;;;;;14.40;102968.00;;;;5048173;28;20231;-83
2022/02/27 11:32:53;;;;;;;3.78;2.40;;;;;14.50;102964.00;;;;5040771;28;20262;-82
2022/02/27 11:35:42;;;;;;;3.88;2.00;;;;;14.40;102977.00;;;;5040001;28;20247;-81
2022/02/27 11:38:12;;;;;;;2.88;2.50;;;;;14.60;102960.00;;;;5039196;28;20211;-79
2022/02/27 11:40:45;;;;;;;3.60;2.10;;;;;14.50;102961.00;;;;5043935;28;20219;-81
2022/02/27 11:43:21;;;;;;;4.18;2.17;;;;;14.60;102954.00;;;;5047936;28;20192;-80
2022/02/27 11:46:00;;;;;;;2.92;2.08;;;;;14.60;102961.00;;;;5044783;28;20200;-82
2022/02/27 11:49:04;;;;;;;4.05;2.17;;;;;14.60;102960.00;;;;5038942;28;20241;-82
2022/02/27 11:52:09;;;;;;;2.72;2.15;;;;;14.60;102949.00;;;;5043951;28;20199;-81
2022/02/27 11:54:44;;;;;;;2.63;2.00;;;;;14.80;102943.00;;;;5019801;28;20215;-84
2022/02/27 11:57:14;;;;;;;3.00;1.80;;;;;14.80;102944.00;;;;5031589;28;20211;-81
2022/02/27 12:00:03;;;;;;;3.97;1.98;;;;;14.80;102926.00;;;;5037345;28;20204;-81
2022/02/27 12:02:38;;;;;;;3.55;1.75;;;;;14.80;102926.00;;;;5023265;28;20199;-81
2022/02/27 12:05:07;;;;;;;2.83;2.17;;;;;14.90;102948.00;;;;5031080;28;20209;-83
2022/02/27 12:08:07;;;;;;;3.47;1.90;;;;;14.80;102940.00;;;;5043048;28;20187;-85
2022/02/27 12:10:37;;;;;;;2.50;1.63;;;;;14.90;102946.00;;;;5040091;28;20188;-83
2022/02/27 12:13:19;;;;;;;3.03;1.98;;;;;14.90;102945.00;;;;5046670;28;20200;-82
2022/02/27 12:15:48;;;;;;;2.42;1.80;;;;;15.00;102930.00;;;;5036339;28;20227;-84
2022/02/27 12:18:22;;;;;;;3.10;1.83;;;;;15.00;102930.00;;;;5036490;28;20349;-82
2022/02/27 12:20:57;;;;;;;3.45;1.63;;;;;15.10;102926.00;;;;5029004;28;20203;-85
2022/02/27 12:23:48;;;;;;;3.13;1.70;;;;;15.00;102918.00;;;;5034723;28;20942;-80